KJXI

Details ICAO KJXI
Name FOX STEPHENS FLD GILMER MUNI
Region United States
Timezone America/Chicago (UTC-6.0)
Plans Departing 1
Arriving 3
Stats Elevation 415 ft / 126 m (AMSL)
Location 32.698031° -94.948847°
Runways 1
Magnetic Variation 2.144° E
Sunrise 2017-12-18 13:17:55 UTC / 2017-12-18 07:17:55 Local
Sunset 2017-12-18 23:17:51 UTC / 2017-12-18 17:17:51 Local
Advertisement - Login to hide

Runways

ID Width Length Bearing (true) Bearing (mag) Surface Threshold Offset Overrun Length
18 60 ft / 18 m 4,012 ft / 1,223 m 180.25° 178.11° Asphalt 0 ft / 0 m 0 ft / 0 m
36 60 ft / 18 m 4,012 ft / 1,223 m 0.25° 358.11° Asphalt 0 ft / 0 m 0 ft / 0 m

Map

Weather


0- 5 10 15 20 25 30 35+ Temperature / ° C

Clouds and Precipitation
Forecast for 2017-12-18 12:00 UTC. Updated 16 minutes ago

Ground ~20,000 ft ~40,000 ft Winds

METAR

KJXI 180735Z AUTO 00000KT 1 1/2SM BR 08/08 A3015 RMK AO2 T00830083

TAF

Not found

Frequencies

Recorded 118.20 MHz AWOS 3
Approach 118.25 MHz LONGVIEW APP/DEP
Unicom 122.90 MHz CTAF
Warning: Do not use this data for real-world aviation or navigation. No guarantee of current accuracy is given.